createdAt,value
2016-08-28T00:00:02.965Z,0
2016-08-28T00:01:03.011Z,0
2016-08-28T00:02:02.972Z,0
2016-08-28T00:03:02.971Z,0
2016-08-28T00:04:02.976Z,0
2016-08-28T00:05:02.981Z,0
2016-08-28T00:06:03.045Z,0
2016-08-28T00:07:02.986Z,0
2016-08-28T00:08:02.993Z,0
2016-08-28T00:09:02.991Z,0
2016-08-28T00:10:03.002Z,0
2016-08-28T00:11:03.000Z,0
2016-08-28T00:12:03.011Z,0
2016-08-28T00:13:03.015Z,0
2016-08-28T00:14:03.037Z,0
2016-08-28T00:15:03.042Z,0
2016-08-28T00:16:03.040Z,0
2016-08-28T00:17:03.040Z,0
2016-08-28T00:18:03.032Z,0
2016-08-28T00:19:03.042Z,0
2016-08-28T00:20:03.046Z,0
2016-08-28T00:21:03.104Z,0
2016-08-28T00:22:03.107Z,0
2016-08-28T00:23:03.061Z,0
2016-08-28T00:24:03.059Z,0
2016-08-28T00:25:03.059Z,0
2016-08-28T00:26:03.065Z,0
2016-08-28T00:27:03.089Z,0
2016-08-28T00:28:03.089Z,0
2016-08-28T00:29:03.109Z,0
2016-08-28T00:30:03.111Z,0
2016-08-28T00:31:03.846Z,0
2016-08-28T00:32:03.105Z,0
2016-08-28T00:33:03.097Z,0
2016-08-28T00:34:03.147Z,0
2016-08-28T00:35:03.104Z,0
2016-08-28T00:36:03.113Z,0
2016-08-28T00:37:03.105Z,0
2016-08-28T00:38:03.121Z,0
2016-08-28T00:39:03.116Z,0
2016-08-28T00:40:03.129Z,0
2016-08-28T00:41:03.136Z,0
2016-08-28T00:42:03.143Z,0
2016-08-28T00:43:03.135Z,0
2016-08-28T00:44:03.140Z,0
2016-08-28T00:45:03.152Z,0
2016-08-28T00:46:03.150Z,0
2016-08-28T00:47:03.170Z,0
2016-08-28T00:48:03.153Z,0
2016-08-28T00:49:03.156Z,0
2016-08-28T00:50:03.160Z,0
2016-08-28T00:51:03.189Z,0
2016-08-28T00:52:03.174Z,0
2016-08-28T00:53:03.171Z,0
2016-08-28T00:54:03.178Z,0
2016-08-28T00:55:03.178Z,0
2016-08-28T00:56:03.205Z,0
2016-08-28T00:57:03.272Z,0
2016-08-28T00:58:03.271Z,0
2016-08-28T00:59:03.191Z,0
2016-08-28T01:00:03.202Z,0
2016-08-28T01:01:03.459Z,0
2016-08-28T01:02:03.201Z,0
2016-08-28T01:03:03.923Z,0
2016-08-28T01:04:03.213Z,0
2016-08-28T01:05:03.208Z,0
2016-08-28T01:06:03.220Z,0
2016-08-28T01:07:03.224Z,0
2016-08-28T01:08:03.230Z,0
2016-08-28T01:09:03.222Z,0
2016-08-28T01:10:03.255Z,0
2016-08-28T01:11:03.250Z,0
2016-08-28T01:12:03.962Z,0
2016-08-28T01:13:03.255Z,0
2016-08-28T01:14:03.259Z,0
2016-08-28T01:15:03.257Z,0
2016-08-28T01:16:03.260Z,0
2016-08-28T01:17:03.263Z,0
2016-08-28T01:18:03.260Z,0
2016-08-28T01:19:03.282Z,0
2016-08-28T01:20:03.264Z,0
2016-08-28T01:21:03.293Z,0
2016-08-28T01:22:03.276Z,0
2016-08-28T01:23:03.296Z,0
2016-08-28T01:24:03.297Z,0
2016-08-28T01:25:03.297Z,0
2016-08-28T01:26:03.318Z,0
2016-08-28T01:27:03.315Z,0
2016-08-28T01:28:03.315Z,0
2016-08-28T01:29:03.315Z,0
2016-08-28T01:30:04.020Z,0
2016-08-28T01:31:03.314Z,0
2016-08-28T01:32:03.334Z,0
2016-08-28T01:33:03.331Z,0
2016-08-28T01:34:03.327Z,0
2016-08-28T01:35:03.327Z,0
2016-08-28T01:36:03.329Z,0
2016-08-28T01:37:03.335Z,0
2016-08-28T01:38:03.347Z,0
2016-08-28T01:39:03.342Z,0
2016-08-28T01:40:03.358Z,0
2016-08-28T01:41:03.363Z,0
2016-08-28T01:42:03.360Z,0
2016-08-28T01:43:03.368Z,0
2016-08-28T01:44:03.366Z,0
2016-08-28T01:45:03.373Z,0
2016-08-28T01:46:03.373Z,0
2016-08-28T01:47:03.376Z,0
2016-08-28T01:48:03.375Z,0
2016-08-28T01:49:03.396Z,0
2016-08-28T01:50:03.395Z,0
2016-08-28T01:51:03.396Z,0
2016-08-28T01:52:03.394Z,0
2016-08-28T01:53:03.396Z,0
2016-08-28T01:54:03.405Z,0
2016-08-28T01:55:03.401Z,0
2016-08-28T01:56:03.405Z,0
2016-08-28T01:57:03.405Z,0
2016-08-28T01:58:03.430Z,0
2016-08-28T01:59:03.427Z,0
2016-08-28T02:00:04.148Z,0
2016-08-28T02:01:03.573Z,0
2016-08-28T02:02:03.442Z,0
2016-08-28T02:03:03.438Z,0
2016-08-28T02:04:03.455Z,0
2016-08-28T02:05:03.442Z,0
2016-08-28T02:06:03.445Z,0
2016-08-28T02:07:03.470Z,0
2016-08-28T02:08:03.469Z,0
2016-08-28T02:09:03.464Z,0
2016-08-28T02:10:03.467Z,0
2016-08-28T02:11:03.467Z,0
2016-08-28T02:12:03.466Z,0
2016-08-28T02:13:03.479Z,0
2016-08-28T02:14:03.490Z,0
2016-08-28T02:15:03.486Z,0
2016-08-28T02:16:03.480Z,0
2016-08-28T02:17:03.507Z,0
2016-08-28T02:18:03.498Z,0
2016-08-28T02:19:03.500Z,0
2016-08-28T02:20:03.534Z,0
2016-08-28T02:21:03.497Z,0
2016-08-28T02:22:03.519Z,0
2016-08-28T02:23:03.517Z,0
2016-08-28T02:24:03.523Z,0
2016-08-28T02:25:03.524Z,0
2016-08-28T02:26:03.525Z,0
2016-08-28T02:27:03.534Z,0
2016-08-28T02:28:03.537Z,0
2016-08-28T02:29:03.558Z,0
2016-08-28T02:30:03.532Z,0
2016-08-28T02:31:03.561Z,0
2016-08-28T02:32:03.560Z,0
2016-08-28T02:33:03.558Z,0
2016-08-28T02:34:03.563Z,0
2016-08-28T02:35:03.561Z,0
2016-08-28T02:36:03.566Z,0
2016-08-28T02:37:03.565Z,0
2016-08-28T02:38:03.578Z,0
2016-08-28T02:39:03.581Z,0
2016-08-28T02:40:03.573Z,0
2016-08-28T02:41:03.591Z,0
2016-08-28T02:42:03.581Z,0
2016-08-28T02:43:03.591Z,0
2016-08-28T02:44:03.600Z,0
2016-08-28T02:45:03.593Z,0
2016-08-28T02:46:03.607Z,0
2016-08-28T02:47:03.609Z,0
2016-08-28T02:48:03.616Z,0
2016-08-28T02:49:04.315Z,0
2016-08-28T02:50:03.643Z,0
2016-08-28T02:51:03.630Z,0
2016-08-28T02:52:03.629Z,0
2016-08-28T02:53:04.336Z,0
2016-08-28T02:54:03.646Z,0
2016-08-28T02:55:03.647Z,0
2016-08-28T02:56:03.647Z,0
2016-08-28T02:57:03.645Z,0
2016-08-28T02:58:04.366Z,0
2016-08-28T02:59:03.647Z,0
2016-08-28T03:00:03.663Z,0
2016-08-28T03:01:03.666Z,0
2016-08-28T03:02:03.658Z,0
2016-08-28T03:03:03.661Z,0
2016-08-28T03:04:04.373Z,0
2016-08-28T03:05:03.671Z,0
2016-08-28T03:06:03.717Z,0
2016-08-28T03:07:03.673Z,0
2016-08-28T03:08:03.687Z,0
2016-08-28T03:09:03.677Z,0
2016-08-28T03:10:04.412Z,0
2016-08-28T03:11:03.684Z,0
2016-08-28T03:12:03.700Z,0
2016-08-28T03:13:03.699Z,0
2016-08-28T03:14:03.699Z,0
2016-08-28T03:15:03.708Z,0
2016-08-28T03:16:03.713Z,0
2016-08-28T03:17:03.706Z,0
2016-08-28T03:18:03.711Z,0
2016-08-28T03:19:03.712Z,0
2016-08-28T03:20:03.720Z,0
2016-08-28T03:21:03.722Z,0
2016-08-28T03:22:03.719Z,0
2016-08-28T03:23:03.723Z,0
2016-08-28T03:24:03.738Z,0
2016-08-28T03:25:03.738Z,0
2016-08-28T03:26:03.737Z,0
2016-08-28T03:27:03.746Z,0
2016-08-28T03:28:03.767Z,0
2016-08-28T03:29:03.763Z,0
2016-08-28T03:30:03.755Z,0
2016-08-28T03:31:04.480Z,0
2016-08-28T03:32:03.767Z,0
2016-08-28T03:33:03.769Z,0
2016-08-28T03:34:03.769Z,0
2016-08-28T03:35:03.770Z,0
2016-08-28T03:36:03.796Z,0
2016-08-28T03:37:03.782Z,0
2016-08-28T03:38:03.785Z,0
2016-08-28T03:39:03.795Z,0
2016-08-28T03:40:03.789Z,0
2016-08-28T03:41:03.793Z,0
2016-08-28T03:42:03.794Z,0
2016-08-28T03:43:03.793Z,0
2016-08-28T03:44:03.800Z,0
2016-08-28T03:45:03.807Z,0
2016-08-28T03:46:03.809Z,0
2016-08-28T03:47:03.815Z,0
2016-08-28T03:48:03.826Z,0
2016-08-28T03:49:04.538Z,0
2016-08-28T03:50:03.818Z,0
2016-08-28T03:51:03.837Z,0
2016-08-28T03:52:03.832Z,0
2016-08-28T03:53:03.840Z,0
2016-08-28T03:54:03.840Z,0
2016-08-28T03:55:03.851Z,0
2016-08-28T03:56:03.852Z,0
2016-08-28T03:57:03.865Z,0
2016-08-28T03:58:03.855Z,0
2016-08-28T03:59:03.852Z,0
2016-08-28T04:00:03.867Z,0
2016-08-28T04:01:03.866Z,0
2016-08-28T04:02:03.870Z,0
2016-08-28T04:03:03.887Z,0
2016-08-28T04:04:03.873Z,0
2016-08-28T04:05:03.872Z,0
2016-08-28T04:06:03.871Z,0
2016-08-28T04:07:03.882Z,0
2016-08-28T04:08:03.886Z,0
2016-08-28T04:09:04.612Z,0
2016-08-28T04:10:03.896Z,0
2016-08-28T04:11:03.893Z,0
2016-08-28T04:12:03.933Z,0
2016-08-28T04:13:04.618Z,0
2016-08-28T04:14:04.622Z,0
2016-08-28T04:15:04.622Z,0
2016-08-28T04:16:03.914Z,0
2016-08-28T04:17:03.915Z,0
2016-08-28T04:18:03.946Z,0
2016-08-28T04:19:03.946Z,0
2016-08-28T04:20:03.948Z,0
2016-08-28T04:21:03.950Z,0
2016-08-28T04:22:04.651Z,0
2016-08-28T04:23:03.950Z,0
2016-08-28T04:24:03.948Z,0
2016-08-28T04:25:03.947Z,0
2016-08-28T04:26:03.961Z,0
2016-08-28T04:27:03.952Z,0
2016-08-28T04:28:03.968Z,5
2016-08-28T04:29:04.675Z,5
2016-08-28T04:30:03.964Z,5
2016-08-28T04:31:03.967Z,5
2016-08-28T04:32:03.991Z,5
2016-08-28T04:33:03.982Z,5
2016-08-28T04:34:03.980Z,5
2016-08-28T04:35:04.012Z,5
2016-08-28T04:36:04.004Z,5
2016-08-28T04:37:03.994Z,5
2016-08-28T04:38:04.006Z,5
2016-08-28T04:39:04.005Z,5
2016-08-28T04:40:04.006Z,5
2016-08-28T04:41:04.004Z,5
2016-08-28T04:42:04.007Z,10
2016-08-28T04:43:04.022Z,10
2016-08-28T04:44:04.025Z,10
2016-08-28T04:45:04.029Z,10
2016-08-28T04:46:04.025Z,10
2016-08-28T04:47:04.026Z,10
2016-08-28T04:48:04.036Z,10
2016-08-28T04:49:04.035Z,10
2016-08-28T04:50:04.041Z,5
2016-08-28T04:51:04.047Z,5
2016-08-28T04:52:04.039Z,5
2016-08-28T04:53:04.046Z,5
2016-08-28T04:54:04.049Z,5
2016-08-28T04:55:04.059Z,5
2016-08-28T04:56:04.074Z,5
2016-08-28T04:57:04.063Z,5
2016-08-28T04:58:04.778Z,5
2016-08-28T04:59:04.073Z,0
2016-08-28T05:00:04.080Z,0
2016-08-28T05:01:04.092Z,0
2016-08-28T05:02:04.096Z,0
2016-08-28T05:03:04.103Z,0
2016-08-28T05:04:04.090Z,0
2016-08-28T05:05:04.107Z,0
2016-08-28T05:06:04.100Z,0
2016-08-28T05:07:04.110Z,0
2016-08-28T05:08:05.532Z,0
2016-08-28T05:09:04.112Z,0
2016-08-28T05:10:04.133Z,0
2016-08-28T05:11:04.133Z,0
2016-08-28T05:12:04.131Z,0
2016-08-28T05:13:04.135Z,0
2016-08-28T05:14:04.138Z,0
2016-08-28T05:15:04.135Z,0
2016-08-28T05:16:04.175Z,0
2016-08-28T05:17:04.138Z,0
2016-08-28T05:18:04.143Z,0
2016-08-28T05:19:04.151Z,0
2016-08-28T05:20:04.147Z,0
2016-08-28T05:21:04.174Z,0
2016-08-28T05:22:04.176Z,0
2016-08-28T05:23:04.882Z,0
2016-08-28T05:24:04.178Z,0
2016-08-28T05:25:04.177Z,0
2016-08-28T05:26:04.178Z,0
2016-08-28T05:27:04.203Z,0
2016-08-28T05:28:04.174Z,0
2016-08-28T05:29:04.175Z,0
2016-08-28T05:30:04.178Z,0
2016-08-28T05:31:04.180Z,0
2016-08-28T05:32:04.906Z,0
2016-08-28T05:33:04.210Z,0
2016-08-28T05:34:04.203Z,0
2016-08-28T05:35:04.185Z,0
2016-08-28T05:36:04.205Z,0
2016-08-28T05:37:04.200Z,0
2016-08-28T05:38:04.911Z,0
2016-08-28T05:39:04.913Z,0
2016-08-28T05:40:04.207Z,0
2016-08-28T05:41:04.203Z,0
2016-08-28T05:42:04.204Z,0
2016-08-28T05:43:04.207Z,0
2016-08-28T05:44:04.915Z,0
2016-08-28T05:45:04.210Z,0
2016-08-28T05:46:04.929Z,0
2016-08-28T05:47:04.213Z,0
2016-08-28T05:48:04.930Z,0
2016-08-28T05:49:04.219Z,0
2016-08-28T05:50:04.222Z,0
2016-08-28T05:51:04.220Z,0
2016-08-28T05:52:04.228Z,0
2016-08-28T05:53:04.223Z,5
2016-08-28T05:54:04.226Z,5
2016-08-28T05:55:04.235Z,5
2016-08-28T05:56:04.235Z,5
2016-08-28T05:57:04.937Z,5
2016-08-28T05:58:04.250Z,5
2016-08-28T05:59:04.252Z,5
2016-08-28T06:00:04.246Z,5
2016-08-28T06:01:04.243Z,5
2016-08-28T06:02:04.258Z,10
2016-08-28T06:03:04.265Z,10
2016-08-28T06:04:04.259Z,10
2016-08-28T06:05:04.251Z,10
2016-08-28T06:06:04.263Z,10
2016-08-28T06:07:04.275Z,15
2016-08-28T06:08:04.273Z,15
2016-08-28T06:09:04.269Z,15
2016-08-28T06:10:04.270Z,15
2016-08-28T06:11:04.270Z,20
2016-08-28T06:12:04.282Z,20
2016-08-28T06:13:04.280Z,25
2016-08-28T06:14:04.279Z,25
2016-08-28T06:15:04.984Z,30
2016-08-28T06:16:04.287Z,30
2016-08-28T06:17:04.285Z,35
2016-08-28T06:18:04.287Z,40
2016-08-28T06:19:04.291Z,40
2016-08-28T06:20:04.313Z,45
2016-08-28T06:21:04.296Z,50
2016-08-28T06:22:04.295Z,55
2016-08-28T06:23:04.300Z,55
2016-08-28T06:24:04.314Z,60
2016-08-28T06:25:04.329Z,65
2016-08-28T06:26:04.318Z,65
2016-08-28T06:27:04.311Z,70
2016-08-28T06:28:05.031Z,70
2016-08-28T06:29:04.319Z,75
2016-08-28T06:30:04.332Z,75
2016-08-28T06:31:04.333Z,75
2016-08-28T06:32:04.325Z,80
2016-08-28T06:33:04.347Z,80
2016-08-28T06:34:04.329Z,80
2016-08-28T06:35:04.345Z,80
2016-08-28T06:36:04.356Z,80
2016-08-28T06:37:04.339Z,80
2016-08-28T06:38:04.344Z,85
2016-08-28T06:39:04.356Z,85
2016-08-28T06:40:04.355Z,90
2016-08-28T06:41:04.353Z,105
2016-08-28T06:42:04.353Z,135
2016-08-28T06:43:04.370Z,125
2016-08-28T06:44:04.359Z,125
2016-08-28T06:45:04.375Z,125
2016-08-28T06:46:05.077Z,130
2016-08-28T06:47:04.396Z,150
2016-08-28T06:48:05.082Z,150
2016-08-28T06:49:04.386Z,130
2016-08-28T06:50:04.389Z,125
2016-08-28T06:51:04.410Z,125
2016-08-28T06:52:04.412Z,130
2016-08-28T06:53:04.411Z,135
2016-08-28T06:54:04.411Z,125
2016-08-28T06:55:04.413Z,130
2016-08-28T06:56:04.403Z,195
2016-08-28T06:57:04.417Z,230
2016-08-28T06:58:04.436Z,270
2016-08-28T06:59:04.418Z,185
2016-08-28T07:00:04.438Z,205
2016-08-28T07:01:04.422Z,275
2016-08-28T07:02:04.452Z,295
2016-08-28T07:03:04.439Z,300
2016-08-28T07:04:04.453Z,295
2016-08-28T07:05:04.454Z,295
2016-08-28T07:06:04.459Z,295
2016-08-28T07:07:04.481Z,295
2016-08-28T07:08:05.167Z,295
2016-08-28T07:09:04.468Z,305
2016-08-28T07:10:04.500Z,300
2016-08-28T07:11:04.495Z,300
2016-08-28T07:12:04.494Z,295
2016-08-28T07:13:04.506Z,295
2016-08-28T07:14:04.494Z,295
2016-08-28T07:15:04.539Z,295
2016-08-28T07:16:04.519Z,295
2016-08-28T07:17:05.225Z,295
2016-08-28T07:18:04.539Z,285
2016-08-28T07:19:04.555Z,270
2016-08-28T07:20:04.550Z,250
2016-08-28T07:21:04.554Z,235
2016-08-28T07:22:04.580Z,220
2016-08-28T07:23:04.583Z,215
2016-08-28T07:24:04.616Z,210
2016-08-28T07:25:04.601Z,205
2016-08-28T07:26:04.613Z,200
2016-08-28T07:27:05.296Z,200
2016-08-28T07:28:04.616Z,195
2016-08-28T07:29:04.615Z,195
2016-08-28T07:30:04.614Z,195
2016-08-28T07:31:04.639Z,205
2016-08-28T07:32:04.638Z,220
2016-08-28T07:33:04.639Z,245
2016-08-28T07:34:04.643Z,250
2016-08-28T07:35:04.657Z,260
2016-08-28T07:36:04.652Z,265
2016-08-28T07:37:04.665Z,265
2016-08-28T07:38:04.669Z,265
2016-08-28T07:39:04.677Z,255
2016-08-28T07:40:04.685Z,250
2016-08-28T07:41:04.687Z,250
2016-08-28T07:42:04.706Z,240
2016-08-28T07:43:04.704Z,230
2016-08-28T07:44:04.703Z,215
2016-08-28T07:45:04.733Z,210
2016-08-28T07:46:04.729Z,210
2016-08-28T07:47:04.741Z,215
2016-08-28T07:48:05.446Z,220
2016-08-28T07:49:04.749Z,230
2016-08-28T07:50:04.759Z,245
2016-08-28T07:51:04.763Z,255
2016-08-28T07:52:04.756Z,255
2016-08-28T07:53:04.772Z,255
2016-08-28T07:54:04.780Z,255
2016-08-28T07:55:04.782Z,255
2016-08-28T07:56:04.792Z,260
2016-08-28T07:57:04.794Z,260
2016-08-28T07:58:04.821Z,260
2016-08-28T07:59:04.812Z,260
2016-08-28T08:00:04.838Z,260
2016-08-28T08:01:04.878Z,260
2016-08-28T08:02:04.829Z,260
2016-08-28T08:03:04.838Z,260
2016-08-28T08:04:04.840Z,260
2016-08-28T08:05:05.591Z,260
2016-08-28T08:06:04.966Z,260
2016-08-28T08:07:04.884Z,260
2016-08-28T08:08:04.893Z,260
2016-08-28T08:09:04.894Z,260
2016-08-28T08:10:04.911Z,235
2016-08-28T08:11:04.911Z,200
2016-08-28T08:12:04.916Z,200
2016-08-28T08:13:04.934Z,200
2016-08-28T08:14:04.933Z,200
2016-08-28T08:15:05.665Z,200
2016-08-28T08:16:04.960Z,200
2016-08-28T08:17:04.970Z,255
2016-08-28T08:18:05.690Z,255
2016-08-28T08:19:04.987Z,255
2016-08-28T08:20:04.992Z,255
2016-08-28T08:21:04.987Z,255
2016-08-28T08:22:05.005Z,250
2016-08-28T08:23:05.023Z,250
2016-08-28T08:24:05.019Z,250
2016-08-28T08:25:05.025Z,245
2016-08-28T08:26:05.040Z,245
2016-08-28T08:27:05.038Z,250
2016-08-28T08:28:05.043Z,245
2016-08-28T08:29:05.082Z,245
2016-08-28T08:30:05.077Z,245
2016-08-28T08:31:05.075Z,245
2016-08-28T08:32:05.091Z,245
2016-08-28T08:33:05.807Z,245
2016-08-28T08:34:05.108Z,245
2016-08-28T08:35:05.115Z,250
2016-08-28T08:36:05.125Z,245
2016-08-28T08:37:05.846Z,245
2016-08-28T08:38:05.135Z,245
2016-08-28T08:39:05.143Z,240
2016-08-28T08:40:05.153Z,240
2016-08-28T08:41:05.164Z,240
2016-08-28T08:42:05.189Z,235
2016-08-28T08:43:05.188Z,235
2016-08-28T08:44:05.220Z,235
2016-08-28T08:45:05.215Z,235
2016-08-28T08:46:05.216Z,230
2016-08-28T08:47:05.222Z,230
2016-08-28T08:48:05.233Z,230
2016-08-28T08:49:05.233Z,235
2016-08-28T08:50:05.265Z,230
2016-08-28T08:51:05.273Z,230
2016-08-28T08:52:05.267Z,230
2016-08-28T08:53:05.281Z,230
2016-08-28T08:54:05.275Z,230
2016-08-28T08:55:05.288Z,230
2016-08-28T08:56:05.300Z,230
2016-08-28T08:57:05.300Z,230
2016-08-28T08:58:05.311Z,235
2016-08-28T08:59:06.025Z,235
2016-08-28T09:00:06.030Z,235
2016-08-28T09:01:05.333Z,230
2016-08-28T09:02:05.354Z,230
2016-08-28T09:03:05.344Z,230
2016-08-28T09:04:05.343Z,225
2016-08-28T09:05:05.358Z,230
2016-08-28T09:06:05.367Z,225
2016-08-28T09:07:05.368Z,225
2016-08-28T09:08:05.374Z,225
2016-08-28T09:09:05.389Z,225
2016-08-28T09:10:05.386Z,225
2016-08-28T09:11:05.401Z,225
2016-08-28T09:12:06.109Z,225
2016-08-28T09:13:05.405Z,225
2016-08-28T09:14:05.409Z,220
2016-08-28T09:15:05.415Z,220
2016-08-28T09:16:05.467Z,220
2016-08-28T09:17:05.428Z,220
2016-08-28T09:18:05.434Z,215
2016-08-28T09:19:06.158Z,220
2016-08-28T09:20:05.455Z,215
2016-08-28T09:21:05.459Z,220
2016-08-28T09:22:05.474Z,220
2016-08-28T09:23:05.490Z,220
2016-08-28T09:24:05.490Z,215
2016-08-28T09:25:05.490Z,220
2016-08-28T09:26:05.500Z,220
2016-08-28T09:27:05.497Z,210
2016-08-28T09:28:05.511Z,220
2016-08-28T09:29:05.513Z,190
2016-08-28T09:30:05.525Z,195
2016-08-28T09:31:05.561Z,190
2016-08-28T09:32:05.522Z,215
2016-08-28T09:33:05.551Z,185
2016-08-28T09:34:05.549Z,210
2016-08-28T09:35:05.553Z,215
2016-08-28T09:36:05.555Z,225
2016-08-28T09:37:05.563Z,225
2016-08-28T09:38:06.279Z,225
2016-08-28T09:39:05.587Z,230
2016-08-28T09:40:05.588Z,225
2016-08-28T09:41:05.596Z,215
2016-08-28T09:42:05.606Z,205
2016-08-28T09:43:05.611Z,170
2016-08-28T09:44:05.603Z,210
2016-08-28T09:45:06.335Z,205
2016-08-28T09:46:05.624Z,215
2016-08-28T09:47:05.643Z,215
2016-08-28T09:48:05.649Z,205
2016-08-28T09:49:05.648Z,210
2016-08-28T09:50:06.380Z,205
2016-08-28T09:51:05.658Z,220
2016-08-28T09:52:05.667Z,220
2016-08-28T09:53:05.672Z,215
2016-08-28T09:54:05.675Z,215
2016-08-28T09:55:06.397Z,215
2016-08-28T09:56:05.711Z,215
2016-08-28T09:57:05.699Z,210
2016-08-28T09:58:05.706Z,210
2016-08-28T09:59:05.715Z,210
2016-08-28T10:00:05.723Z,210
2016-08-28T10:01:05.720Z,210
2016-08-28T10:02:05.741Z,210
2016-08-28T10:03:05.741Z,205
2016-08-28T10:04:05.787Z,205
2016-08-28T10:05:06.479Z,205
2016-08-28T10:06:05.758Z,205
2016-08-28T10:07:05.787Z,205
2016-08-28T10:08:05.773Z,205
2016-08-28T10:09:05.782Z,205
2016-08-28T10:10:05.788Z,205
2016-08-28T10:11:05.800Z,205
2016-08-28T10:12:05.809Z,205
2016-08-28T10:13:05.812Z,205
2016-08-28T10:14:05.822Z,205
2016-08-28T10:15:05.825Z,205
2016-08-28T10:16:05.835Z,205
2016-08-28T10:17:05.856Z,205
2016-08-28T10:18:05.855Z,205
2016-08-28T10:19:07.294Z,205
2016-08-28T10:20:06.573Z,205
2016-08-28T10:21:05.890Z,200
2016-08-28T10:22:05.895Z,205
2016-08-28T10:23:05.892Z,205
2016-08-28T10:24:05.895Z,205
2016-08-28T10:25:05.898Z,205
2016-08-28T10:26:05.911Z,205
2016-08-28T10:27:06.630Z,205
2016-08-28T10:28:05.920Z,205
2016-08-28T10:29:05.952Z,200
2016-08-28T10:30:05.955Z,205
2016-08-28T10:31:05.953Z,205
2016-08-28T10:32:05.957Z,205
2016-08-28T10:33:05.967Z,205
2016-08-28T10:34:05.971Z,205
2016-08-28T10:35:05.968Z,205
2016-08-28T10:36:05.972Z,205
2016-08-28T10:37:05.982Z,205
2016-08-28T10:38:05.994Z,200
2016-08-28T10:39:06.010Z,200
2016-08-28T10:40:06.020Z,200
2016-08-28T10:41:06.021Z,200
2016-08-28T10:42:06.011Z,200
2016-08-28T10:43:06.025Z,200
2016-08-28T10:44:06.022Z,200
2016-08-28T10:45:06.038Z,200
2016-08-28T10:46:06.045Z,200
2016-08-28T10:47:06.052Z,200
2016-08-28T10:48:06.774Z,200
2016-08-28T10:49:06.071Z,200
2016-08-28T10:50:06.817Z,200
2016-08-28T10:51:06.083Z,200
2016-08-28T10:52:06.085Z,200
2016-08-28T10:53:06.093Z,200
2016-08-28T10:54:06.103Z,205
2016-08-28T10:55:06.116Z,200
2016-08-28T10:56:06.831Z,200
2016-08-28T10:57:06.122Z,200
2016-08-28T10:58:06.146Z,200
2016-08-28T10:59:06.145Z,200
2016-08-28T11:00:06.161Z,200
2016-08-28T11:01:06.154Z,200
2016-08-28T11:02:06.158Z,200
2016-08-28T11:03:06.168Z,200
2016-08-28T11:04:06.178Z,200
2016-08-28T11:05:06.176Z,200
2016-08-28T11:06:06.229Z,200
2016-08-28T11:07:06.217Z,200
2016-08-28T11:08:06.209Z,205
2016-08-28T11:09:06.228Z,210
2016-08-28T11:10:06.236Z,205
2016-08-28T11:11:06.231Z,205
2016-08-28T11:12:06.237Z,205
2016-08-28T11:13:06.253Z,205
2016-08-28T11:14:06.254Z,210
2016-08-28T11:15:06.265Z,215
2016-08-28T11:16:06.267Z,215
2016-08-28T11:17:06.290Z,220
2016-08-28T11:18:06.296Z,225
2016-08-28T11:19:06.293Z,230
2016-08-28T11:20:06.310Z,240
2016-08-28T11:21:06.304Z,240
2016-08-28T11:22:06.310Z,240
2016-08-28T11:23:06.323Z,250
2016-08-28T11:24:06.323Z,255
2016-08-28T11:25:06.357Z,255
2016-08-28T11:26:06.341Z,245
2016-08-28T11:27:06.367Z,240
2016-08-28T11:28:06.359Z,235
2016-08-28T11:29:06.366Z,235
2016-08-28T11:30:06.377Z,225
2016-08-28T11:31:06.412Z,220
2016-08-28T11:32:06.390Z,210
2016-08-28T11:33:06.419Z,210
2016-08-28T11:34:06.420Z,205
2016-08-28T11:35:06.413Z,205
2016-08-28T11:36:06.422Z,205
2016-08-28T11:37:06.427Z,210
2016-08-28T11:38:06.472Z,210
2016-08-28T11:39:06.450Z,210
2016-08-28T11:40:06.454Z,210
2016-08-28T11:41:06.475Z,205
2016-08-28T11:42:06.481Z,205
2016-08-28T11:43:06.482Z,200
2016-08-28T11:44:06.484Z,200
2016-08-28T11:45:06.511Z,200
2016-08-28T11:46:06.528Z,205
2016-08-28T11:47:06.510Z,200
2016-08-28T11:48:06.515Z,200
2016-08-28T11:49:06.561Z,205
2016-08-28T11:50:06.543Z,205
2016-08-28T11:51:06.564Z,210
2016-08-28T11:52:06.562Z,215
2016-08-28T11:53:06.560Z,215
2016-08-28T11:54:06.571Z,215
2016-08-28T11:55:07.279Z,215
2016-08-28T11:56:06.616Z,215
2016-08-28T11:57:06.590Z,220
2016-08-28T11:58:07.310Z,220
2016-08-28T11:59:06.616Z,215
2016-08-28T12:00:06.622Z,210
2016-08-28T12:01:06.630Z,205
2016-08-28T12:02:06.653Z,200
2016-08-28T12:03:06.669Z,190
2016-08-28T12:04:06.669Z,190
2016-08-28T12:05:06.678Z,170
2016-08-28T12:06:06.686Z,115
2016-08-28T12:07:06.683Z,125
2016-08-28T12:08:06.703Z,105
2016-08-28T12:09:06.719Z,95
2016-08-28T12:10:06.709Z,95
2016-08-28T12:11:06.733Z,105
2016-08-28T12:12:06.744Z,115
2016-08-28T12:13:06.741Z,100
2016-08-28T12:14:06.757Z,125
2016-08-28T12:15:06.761Z,135
2016-08-28T12:16:06.783Z,125
2016-08-28T12:17:06.802Z,145
2016-08-28T12:18:06.797Z,135
2016-08-28T12:19:06.791Z,125
2016-08-28T12:20:06.793Z,90
2016-08-28T12:21:06.815Z,85
2016-08-28T12:22:06.817Z,85
2016-08-28T12:23:06.831Z,85
2016-08-28T12:24:07.549Z,85
2016-08-28T12:25:06.844Z,80
2016-08-28T12:26:06.847Z,80
2016-08-28T12:27:06.855Z,85
2016-08-28T12:28:06.867Z,80
2016-08-28T12:29:06.867Z,75
2016-08-28T12:30:06.870Z,75
2016-08-28T12:31:07.588Z,75
2016-08-28T12:32:06.884Z,75
2016-08-28T12:33:06.905Z,75
2016-08-28T12:34:07.601Z,80
2016-08-28T12:35:06.902Z,100
2016-08-28T12:36:06.915Z,115
2016-08-28T12:37:06.923Z,95
2016-08-28T12:38:06.945Z,80
2016-08-28T12:39:06.972Z,75
2016-08-28T12:40:06.935Z,70
2016-08-28T12:41:06.943Z,70
2016-08-28T12:42:06.957Z,70
2016-08-28T12:43:06.962Z,65
2016-08-28T12:44:06.974Z,70
2016-08-28T12:45:06.989Z,65
2016-08-28T12:46:06.977Z,65
2016-08-28T12:47:06.995Z,65
2016-08-28T12:48:06.993Z,65
2016-08-28T12:49:06.992Z,65
2016-08-28T12:50:07.011Z,60
2016-08-28T12:51:07.010Z,60
2016-08-28T12:52:07.737Z,60
2016-08-28T12:53:07.026Z,60
2016-08-28T12:54:07.022Z,65
2016-08-28T12:55:07.052Z,65
2016-08-28T12:56:07.052Z,65
2016-08-28T12:57:07.074Z,65
2016-08-28T12:58:07.060Z,65
2016-08-28T12:59:07.053Z,70
2016-08-28T13:00:07.071Z,70
2016-08-28T13:01:07.076Z,70
2016-08-28T13:02:07.077Z,70
2016-08-28T13:03:07.094Z,70
2016-08-28T13:04:07.798Z,75
2016-08-28T13:05:07.092Z,80
2016-08-28T13:06:07.105Z,75
2016-08-28T13:07:07.111Z,75
2016-08-28T13:08:07.149Z,80
2016-08-28T13:09:07.139Z,80
2016-08-28T13:10:07.139Z,80
2016-08-28T13:11:07.151Z,85
2016-08-28T13:12:07.144Z,85
2016-08-28T13:13:07.144Z,90
2016-08-28T13:14:07.144Z,95
2016-08-28T13:15:07.151Z,100
2016-08-28T13:16:07.159Z,105
2016-08-28T13:17:07.158Z,105
2016-08-28T13:18:07.167Z,110
2016-08-28T13:19:07.172Z,115
2016-08-28T13:20:07.208Z,125
2016-08-28T13:21:07.208Z,125
2016-08-28T13:22:07.196Z,140
2016-08-28T13:23:07.205Z,155
2016-08-28T13:24:07.213Z,170
2016-08-28T13:25:07.209Z,185
2016-08-28T13:26:07.214Z,190
2016-08-28T13:27:07.214Z,200
2016-08-28T13:28:07.232Z,205
2016-08-28T13:29:07.229Z,215
2016-08-28T13:30:07.231Z,215
2016-08-28T13:31:07.952Z,215
2016-08-28T13:32:07.232Z,220
2016-08-28T13:33:07.244Z,220
2016-08-28T13:34:07.263Z,230
2016-08-28T13:35:07.271Z,235
2016-08-28T13:36:07.265Z,245
2016-08-28T13:37:07.273Z,250
2016-08-28T13:38:07.270Z,255
2016-08-28T13:39:07.273Z,260
2016-08-28T13:40:07.280Z,270
2016-08-28T13:41:07.285Z,280
2016-08-28T13:42:07.299Z,290
2016-08-28T13:43:07.308Z,305
2016-08-28T13:44:08.025Z,300
2016-08-28T13:45:07.310Z,295
2016-08-28T13:46:07.309Z,285
2016-08-28T13:47:07.334Z,275
2016-08-28T13:48:07.338Z,270
2016-08-28T13:49:07.343Z,260
2016-08-28T13:50:07.347Z,255
2016-08-28T13:51:07.365Z,245
2016-08-28T13:52:07.352Z,240
2016-08-28T13:53:07.376Z,230
2016-08-28T13:54:07.361Z,225
2016-08-28T13:55:07.382Z,225
2016-08-28T13:56:08.113Z,220
2016-08-28T13:57:07.382Z,215
2016-08-28T13:58:07.424Z,205
2016-08-28T13:59:07.426Z,200
2016-08-28T14:00:07.424Z,200
2016-08-28T14:01:07.421Z,195
2016-08-28T14:02:07.426Z,190
2016-08-28T14:03:07.440Z,195
2016-08-28T14:04:07.430Z,190
2016-08-28T14:05:07.440Z,190
2016-08-28T14:06:07.442Z,190
2016-08-28T14:07:07.444Z,185
2016-08-28T14:08:07.457Z,185
2016-08-28T14:09:07.470Z,190
2016-08-28T14:10:07.507Z,190
2016-08-28T14:11:07.486Z,185
2016-08-28T14:12:07.488Z,185
2016-08-28T14:13:07.506Z,185